createdAt,value
2018-04-26T00:00:01.516Z,1.67
2018-04-26T00:02:27.903Z,2.23
2018-04-26T00:04:54.293Z,2.00
2018-04-26T00:07:20.686Z,1.83
2018-04-26T00:09:47.809Z,2.00
2018-04-26T00:12:14.175Z,2.63
2018-04-26T00:14:40.568Z,2.20
2018-04-26T00:17:06.966Z,1.93
2018-04-26T00:19:33.365Z,2.83
2018-04-26T00:21:59.742Z,2.00
2018-04-26T00:24:26.114Z,2.20
2018-04-26T00:26:53.244Z,2.20
2018-04-26T00:29:19.623Z,2.33
2018-04-26T00:31:45.986Z,2.47
2018-04-26T00:34:12.347Z,2.40
2018-04-26T00:36:38.718Z,2.70
2018-04-26T00:39:05.095Z,4.23
2018-04-26T00:41:31.474Z,4.00
2018-04-26T00:43:57.842Z,4.17
2018-04-26T00:46:24.232Z,3.57
2018-04-26T00:48:50.633Z,4.07
2018-04-26T00:51:29.227Z,4.33
2018-04-26T00:53:55.623Z,4.50
2018-04-26T00:56:22.032Z,5.20
2018-04-26T00:58:49.196Z,4.20
2018-04-26T01:01:15.597Z,4.53
2018-04-26T01:03:42.048Z,5.03
2018-04-26T01:06:09.235Z,4.77
2018-04-26T01:08:35.672Z,4.50
2018-04-26T01:11:02.100Z,5.40
2018-04-26T01:13:28.500Z,4.70
2018-04-26T01:15:55.666Z,5.13
2018-04-26T01:18:22.059Z,4.47
2018-04-26T01:20:48.428Z,5.63
2018-04-26T01:23:15.572Z,5.10
2018-04-26T01:25:42.711Z,4.50
2018-04-26T01:28:09.313Z,6.33
2018-04-26T01:30:35.706Z,5.10
2018-04-26T01:33:02.163Z,5.10
2018-04-26T01:35:28.587Z,5.30
2018-04-26T01:37:54.996Z,5.37
2018-04-26T01:40:22.123Z,5.63
2018-04-26T01:45:13.588Z,5.27
2018-04-26T01:47:39.970Z,5.23
2018-04-26T01:50:06.358Z,5.30
2018-04-26T01:52:32.790Z,4.93
2018-04-26T01:54:59.180Z,5.60
2018-04-26T01:57:25.558Z,4.90
2018-04-26T01:59:51.978Z,5.03
2018-04-26T02:02:18.371Z,4.93
2018-04-26T02:04:44.797Z,5.40
2018-04-26T02:07:11.174Z,9.10
2018-04-26T02:09:37.540Z,5.27
2018-04-26T02:12:03.937Z,5.57
2018-04-26T02:14:30.343Z,5.80
2018-04-26T02:16:57.476Z,5.23
2018-04-26T02:19:23.855Z,5.80
2018-04-26T02:21:50.264Z,5.73
2018-04-26T02:24:16.645Z,7.47
2018-04-26T02:26:43.018Z,7.50
2018-04-26T02:29:10.743Z,6.60
2018-04-26T02:31:37.217Z,5.93
2018-04-26T02:34:07.846Z,6.00
2018-04-26T02:36:35.947Z,7.83
2018-04-26T02:39:04.250Z,5.53
2018-04-26T02:41:30.726Z,5.27
2018-04-26T02:43:58.291Z,5.83
2018-04-26T02:46:24.826Z,5.80
2018-04-26T02:48:51.265Z,5.67
2018-04-26T02:51:18.530Z,5.63
2018-04-26T02:53:46.955Z,5.83
2018-04-26T02:56:13.525Z,5.67
2018-04-26T02:58:41.629Z,6.40
2018-04-26T03:01:08.083Z,6.00
2018-04-26T03:03:34.930Z,6.13
2018-04-26T03:06:01.446Z,6.90
2018-04-26T03:08:29.362Z,6.20
2018-04-26T03:10:55.880Z,6.57
2018-04-26T03:13:22.461Z,7.40
2018-04-26T03:15:49.723Z,6.80
2018-04-26T03:18:16.174Z,6.90
2018-04-26T03:20:43.357Z,7.60
2018-04-26T03:23:10.603Z,7.90
2018-04-26T03:25:37.678Z,7.67
2018-04-26T03:28:04.106Z,6.70
2018-04-26T03:30:32.533Z,8.67
2018-04-26T03:32:58.962Z,6.37
2018-04-26T03:35:25.470Z,7.20
2018-04-26T03:37:53.501Z,6.13
2018-04-26T03:40:20.667Z,5.70
2018-04-26T03:42:48.141Z,6.60
2018-04-26T03:45:14.611Z,6.50
2018-04-26T03:47:41.950Z,6.30
2018-04-26T03:50:08.373Z,6.47
2018-04-26T03:52:34.794Z,5.80
2018-04-26T03:55:01.170Z,5.47
2018-04-26T03:57:27.567Z,5.90
2018-04-26T04:00:07.067Z,6.17
2018-04-26T04:02:45.810Z,5.50
2018-04-26T04:05:25.251Z,5.73
2018-04-26T04:07:53.138Z,6.60
2018-04-26T04:10:19.514Z,6.70
2018-04-26T04:12:45.900Z,5.90
2018-04-26T04:15:13.099Z,5.00
2018-04-26T04:17:39.511Z,5.90
2018-04-26T04:20:05.974Z,5.80
2018-04-26T04:22:32.356Z,5.13
2018-04-26T04:24:59.484Z,4.73
2018-04-26T04:27:25.985Z,5.13
2018-04-26T04:29:52.381Z,5.90
2018-04-26T04:32:19.519Z,5.00
2018-04-26T04:34:46.639Z,5.13
2018-04-26T04:37:13.038Z,5.83
2018-04-26T04:39:39.428Z,5.37
2018-04-26T04:42:06.600Z,4.80
2018-04-26T04:44:33.720Z,5.10
2018-04-26T04:47:00.101Z,5.07
2018-04-26T04:49:26.499Z,5.40
2018-04-26T04:51:53.606Z,5.43
2018-04-26T04:54:20.009Z,5.87
2018-04-26T04:56:46.404Z,5.57
2018-04-26T04:59:12.795Z,5.10
2018-04-26T05:01:39.176Z,5.70
2018-04-26T05:04:06.553Z,5.00
2018-04-26T05:06:32.969Z,4.60
2018-04-26T05:09:00.137Z,5.63
2018-04-26T05:11:26.548Z,6.10
2018-04-26T05:13:53.807Z,4.87
2018-04-26T05:16:20.132Z,4.97
2018-04-26T05:18:47.247Z,5.73
2018-04-26T05:21:13.699Z,5.60
2018-04-26T05:23:40.830Z,4.77
2018-04-26T05:26:07.260Z,5.43
2018-04-26T05:28:34.441Z,6.23
2018-04-26T05:31:01.666Z,5.63
2018-04-26T05:33:28.076Z,4.53
2018-04-26T05:35:54.466Z,5.03
2018-04-26T05:38:21.603Z,4.83
2018-04-26T05:40:48.767Z,5.77
2018-04-26T05:43:15.926Z,5.27
2018-04-26T05:45:43.056Z,5.57
2018-04-26T05:48:09.494Z,5.07
2018-04-26T05:50:36.683Z,5.37
2018-04-26T05:53:03.162Z,4.77
2018-04-26T05:55:30.339Z,5.80
2018-04-26T05:57:56.741Z,4.87
2018-04-26T06:00:23.152Z,5.90
2018-04-26T06:02:49.551Z,6.50
2018-04-26T06:05:15.934Z,6.50
2018-04-26T06:07:42.325Z,6.97
2018-04-26T06:10:08.718Z,6.23
2018-04-26T06:12:35.117Z,7.83
2018-04-26T06:15:01.518Z,8.10
2018-04-26T06:17:27.913Z,9.53
2018-04-26T06:19:54.305Z,6.50
2018-04-26T06:22:20.753Z,5.73
2018-04-26T06:24:47.152Z,4.80
2018-04-26T06:27:13.561Z,5.10
2018-04-26T06:29:40.694Z,8.60
2018-04-26T06:32:08.722Z,9.83
2018-04-26T06:34:35.103Z,6.13
2018-04-26T06:37:01.494Z,4.50
2018-04-26T06:39:27.943Z,7.90
2018-04-26T06:41:54.336Z,4.43
2018-04-26T06:44:20.762Z,4.23
2018-04-26T06:46:47.170Z,3.97
2018-04-26T06:49:14.299Z,3.70
2018-04-26T06:51:40.673Z,3.97
2018-04-26T06:54:07.133Z,3.83
2018-04-26T06:56:33.533Z,3.33
2018-04-26T06:58:59.925Z,3.33
2018-04-26T07:01:26.316Z,3.57
2018-04-26T07:03:52.718Z,3.57
2018-04-26T07:06:19.887Z,3.57
2018-04-26T07:08:46.287Z,3.27
2018-04-26T07:11:12.681Z,3.40
2018-04-26T07:13:39.067Z,4.00
2018-04-26T07:16:06.235Z,3.70
2018-04-26T07:18:32.618Z,3.80
2018-04-26T07:20:59.005Z,3.77
2018-04-26T07:23:25.423Z,3.80
2018-04-26T07:25:51.892Z,3.83
2018-04-26T07:28:18.293Z,3.27
2018-04-26T07:30:44.698Z,3.50
2018-04-26T07:33:11.084Z,3.40
2018-04-26T07:35:37.483Z,3.47
2018-04-26T07:38:04.686Z,4.83
2018-04-26T07:40:31.254Z,3.50
2018-04-26T07:42:58.379Z,3.10
2018-04-26T07:45:24.762Z,4.10
2018-04-26T07:47:51.179Z,3.73
2018-04-26T07:50:18.323Z,3.80
2018-04-26T07:52:45.466Z,3.87
2018-04-26T07:55:12.603Z,4.50
2018-04-26T07:57:38.990Z,3.63
2018-04-26T08:00:05.403Z,3.40
2018-04-26T08:02:31.801Z,4.30
2018-04-26T08:04:58.179Z,4.20
2018-04-26T08:07:24.587Z,4.10
2018-04-26T08:09:51.720Z,4.37
2018-04-26T08:12:18.102Z,3.80
2018-04-26T08:14:44.504Z,4.33
2018-04-26T08:17:11.651Z,3.80
2018-04-26T08:19:38.873Z,3.90
2018-04-26T08:22:05.200Z,4.67
2018-04-26T08:24:31.600Z,4.20
2018-04-26T08:26:57.996Z,4.00
2018-04-26T08:29:25.216Z,3.93
2018-04-26T08:31:51.649Z,4.20
2018-04-26T08:34:18.792Z,3.60
2018-04-26T08:36:45.203Z,3.50
2018-04-26T08:39:11.663Z,3.77
2018-04-26T08:41:38.154Z,3.90
2018-04-26T08:44:04.584Z,3.73
2018-04-26T08:46:30.975Z,2.87
2018-04-26T08:48:57.398Z,1.90
2018-04-26T08:51:23.808Z,1.73
2018-04-26T08:53:50.198Z,2.00
2018-04-26T08:56:17.348Z,1.90
2018-04-26T08:58:43.798Z,2.30
2018-04-26T09:01:10.220Z,2.10
2018-04-26T09:03:37.383Z,1.83
2018-04-26T09:06:03.797Z,1.80
2018-04-26T09:08:30.275Z,1.73
2018-04-26T09:10:56.721Z,1.93
2018-04-26T09:13:23.257Z,1.90
2018-04-26T09:15:49.734Z,2.13
2018-04-26T09:18:16.170Z,1.87
2018-04-26T09:20:42.586Z,1.80
2018-04-26T09:23:08.988Z,2.30
2018-04-26T09:25:35.416Z,2.00
2018-04-26T09:28:01.815Z,1.93
2018-04-26T09:30:28.198Z,2.13
2018-04-26T09:32:54.629Z,2.07
2018-04-26T09:35:21.063Z,1.80
2018-04-26T09:37:48.960Z,2.23
2018-04-26T09:40:15.397Z,1.53
2018-04-26T09:42:41.892Z,1.87
2018-04-26T09:45:09.059Z,2.20
2018-04-26T09:47:35.525Z,2.47
2018-04-26T09:50:01.968Z,1.60
2018-04-26T09:52:28.387Z,1.90
2018-04-26T09:54:54.839Z,1.83
2018-04-26T09:57:21.243Z,1.50
2018-04-26T09:59:48.380Z,1.57
2018-04-26T10:02:14.821Z,1.43
2018-04-26T10:04:47.242Z,1.67
2018-04-26T10:07:13.671Z,1.70
2018-04-26T10:09:40.082Z,1.70
2018-04-26T10:12:06.481Z,1.70
2018-04-26T10:14:33.630Z,1.70
2018-04-26T10:17:00.121Z,1.50
2018-04-26T10:19:26.484Z,2.07
2018-04-26T10:21:52.942Z,1.90
2018-04-26T10:24:20.212Z,1.70
2018-04-26T10:26:46.752Z,1.70
2018-04-26T10:29:13.892Z,1.83
2018-04-26T10:31:40.312Z,1.93
2018-04-26T10:34:07.456Z,1.70
2018-04-26T10:36:34.595Z,1.70
2018-04-26T10:39:00.997Z,1.50
2018-04-26T10:41:27.395Z,1.73
2018-04-26T10:43:53.799Z,1.43
2018-04-26T10:46:20.970Z,1.80
2018-04-26T10:48:48.182Z,1.30
2018-04-26T10:51:14.654Z,1.43
2018-04-26T10:53:41.051Z,1.70
2018-04-26T10:56:07.498Z,1.60
2018-04-26T10:58:34.694Z,1.77
2018-04-26T11:01:01.135Z,1.30
2018-04-26T11:03:28.267Z,2.23
2018-04-26T11:05:54.662Z,1.80
2018-04-26T11:08:21.046Z,2.23
2018-04-26T11:10:47.435Z,1.67
2018-04-26T11:13:13.839Z,1.37
2018-04-26T11:15:40.262Z,1.90
2018-04-26T11:18:06.675Z,2.20
2018-04-26T11:20:33.077Z,1.73
2018-04-26T11:23:00.235Z,1.33
2018-04-26T11:25:26.661Z,1.43
2018-04-26T11:27:53.860Z,1.20
2018-04-26T11:30:20.271Z,2.50
2018-04-26T11:32:46.701Z,2.23
2018-04-26T11:35:13.096Z,1.53
2018-04-26T11:37:39.571Z,1.80
2018-04-26T11:40:06.004Z,1.43
2018-04-26T11:42:32.421Z,1.40
2018-04-26T11:44:58.855Z,1.30
2018-04-26T11:47:25.239Z,1.43
2018-04-26T11:49:51.670Z,1.33
2018-04-26T11:52:18.160Z,1.17
2018-04-26T11:54:44.565Z,2.00
2018-04-26T11:57:10.979Z,1.40
2018-04-26T11:59:37.421Z,1.37
2018-04-26T12:02:03.857Z,1.70
2018-04-26T12:04:31.078Z,1.73
2018-04-26T12:06:57.495Z,4.37
2018-04-26T12:09:23.968Z,1.20
2018-04-26T12:11:50.367Z,1.50
2018-04-26T12:14:16.808Z,1.60
2018-04-26T12:16:43.211Z,1.27
2018-04-26T12:19:09.615Z,1.30
2018-04-26T12:21:36.009Z,1.80
2018-04-26T12:24:02.417Z,1.67
2018-04-26T12:26:28.840Z,1.60
2018-04-26T12:28:55.242Z,2.20
2018-04-26T12:31:22.444Z,1.50
2018-04-26T12:33:48.902Z,2.10
2018-04-26T12:36:15.297Z,1.37
2018-04-26T12:38:41.736Z,1.60
2018-04-26T12:41:08.168Z,1.60
2018-04-26T12:43:34.590Z,2.13
2018-04-26T12:46:01.025Z,1.87
2018-04-26T12:48:28.149Z,1.90
2018-04-26T12:50:55.285Z,1.73
2018-04-26T12:53:21.699Z,1.63
2018-04-26T12:55:48.105Z,2.00
2018-04-26T12:58:16.662Z,1.60
2018-04-26T13:00:43.789Z,1.50
2018-04-26T13:03:10.179Z,1.40
2018-04-26T13:05:36.680Z,1.30
2018-04-26T13:08:03.169Z,1.60
2018-04-26T13:10:29.512Z,1.60
2018-04-26T13:12:55.923Z,1.97
2018-04-26T13:15:22.823Z,1.40
2018-04-26T13:17:49.977Z,1.63
2018-04-26T13:20:16.362Z,1.60
2018-04-26T13:22:43.910Z,1.23
2018-04-26T13:25:11.113Z,1.87
2018-04-26T13:27:37.719Z,1.13
2018-04-26T13:30:04.141Z,1.30
2018-04-26T13:32:32.251Z,1.47
2018-04-26T13:35:00.235Z,1.50
2018-04-26T13:37:27.773Z,1.67
2018-04-26T13:39:55.949Z,1.60
2018-04-26T13:42:22.436Z,1.60
2018-04-26T13:44:49.321Z,1.30
2018-04-26T13:47:17.604Z,1.90
2018-04-26T13:49:44.329Z,1.60
2018-04-26T13:52:15.030Z,1.30
2018-04-26T13:54:41.752Z,2.07
2018-04-26T13:57:09.209Z,1.53
2018-04-26T13:59:37.945Z,1.67
2018-04-26T14:02:06.306Z,1.20
2018-04-26T14:04:34.446Z,1.60
2018-04-26T14:07:01.389Z,2.23
2018-04-26T14:09:28.443Z,1.37
2018-04-26T14:11:56.325Z,1.40
2018-04-26T14:14:23.855Z,1.40
2018-04-26T14:16:50.473Z,1.50
2018-04-26T14:19:17.943Z,1.50
2018-04-26T14:21:46.055Z,1.77
2018-04-26T14:24:13.419Z,1.43
2018-04-26T14:26:39.918Z,1.40
2018-04-26T14:29:08.496Z,1.70
2018-04-26T14:31:36.888Z,1.80
2018-04-26T14:34:03.435Z,1.33
2018-04-26T14:36:30.481Z,1.40
2018-04-26T14:38:57.720Z,1.50
2018-04-26T14:41:24.446Z,1.23
2018-04-26T14:43:51.322Z,1.80
2018-04-26T14:46:17.838Z,1.50
2018-04-26T14:48:44.352Z,1.30
2018-04-26T14:51:10.838Z,2.30
2018-04-26T14:53:37.304Z,1.80
2018-04-26T14:56:05.415Z,1.47
2018-04-26T14:58:31.883Z,1.20
2018-04-26T15:00:59.890Z,1.37
2018-04-26T15:03:28.147Z,1.27
2018-04-26T15:05:55.543Z,1.43
2018-04-26T15:08:22.338Z,1.50
2018-04-26T15:11:03.531Z,1.57
2018-04-26T15:13:30.234Z,1.90
2018-04-26T15:15:56.770Z,1.17
2018-04-26T15:18:24.887Z,1.67
2018-04-26T15:20:51.404Z,1.47
2018-04-26T15:23:18.765Z,1.57
2018-04-26T15:25:45.302Z,1.63
2018-04-26T15:28:13.611Z,1.33
2018-04-26T15:30:42.800Z,1.30
2018-04-26T15:33:09.331Z,1.30
2018-04-26T15:35:36.386Z,1.63
2018-04-26T15:38:03.708Z,1.40
2018-04-26T15:40:31.101Z,1.97
2018-04-26T15:42:57.670Z,1.27
2018-04-26T15:45:25.011Z,1.57
2018-04-26T15:47:52.204Z,1.27
2018-04-26T15:53:29.730Z,1.60
2018-04-26T15:56:08.273Z,1.47
2018-04-26T15:58:47.222Z,1.57
2018-04-26T16:01:26.136Z,1.60
2018-04-26T16:04:06.419Z,1.40
2018-04-26T16:06:45.155Z,1.27
2018-04-26T16:09:23.928Z,1.50
2018-04-26T16:12:02.655Z,1.80
2018-04-26T16:14:53.231Z,1.70
2018-04-26T16:17:52.760Z,1.60
2018-04-26T16:20:38.398Z,1.40
2018-04-26T16:23:23.450Z,1.40
2018-04-26T16:26:02.132Z,1.77
2018-04-26T16:28:47.239Z,1.70
2018-04-26T16:31:32.408Z,1.40
2018-04-26T16:34:21.956Z,1.40
2018-04-26T16:37:00.731Z,1.53
2018-04-26T16:39:27.917Z,1.33
2018-04-26T16:41:54.594Z,1.90
2018-04-26T16:44:23.220Z,1.93
2018-04-26T16:46:50.681Z,1.73
2018-04-26T16:49:17.968Z,2.07
2018-04-26T16:51:44.518Z,1.63
2018-04-26T16:54:12.556Z,1.83
2018-04-26T16:56:39.748Z,2.20
2018-04-26T16:59:08.402Z,1.50
2018-04-26T17:01:36.654Z,1.80
2018-04-26T17:04:03.256Z,1.60
2018-04-26T17:06:30.805Z,1.50
2018-04-26T17:08:59.114Z,1.70
2018-04-26T17:11:26.348Z,1.63
2018-04-26T17:13:53.860Z,1.60
2018-04-26T17:16:20.670Z,1.90
2018-04-26T17:18:48.356Z,1.60
2018-04-26T17:21:14.976Z,1.60
2018-04-26T17:23:42.965Z,1.53
2018-04-26T17:26:09.754Z,1.33
2018-04-26T17:28:39.014Z,1.40
2018-04-26T17:31:05.649Z,1.30
2018-04-26T17:33:33.268Z,1.27
2018-04-26T17:36:01.176Z,1.97
2018-04-26T17:38:29.800Z,1.67
2018-04-26T17:40:58.138Z,1.30
2018-04-26T17:43:25.555Z,1.70
2018-04-26T17:45:52.950Z,1.37
2018-04-26T17:48:19.880Z,1.20
2018-04-26T17:50:46.435Z,1.30
2018-04-26T17:53:12.978Z,1.57
2018-04-26T17:55:40.393Z,1.37
2018-04-26T17:58:08.250Z,2.10
2018-04-26T18:00:35.103Z,1.60
2018-04-26T18:03:01.585Z,1.30
2018-04-26T18:05:28.849Z,1.30
2018-04-26T18:07:55.355Z,1.83
2018-04-26T18:10:22.601Z,1.43
2018-04-26T18:12:49.247Z,1.50
2018-04-26T18:15:15.882Z,1.70
2018-04-26T18:17:44.052Z,1.40
2018-04-26T18:20:11.211Z,1.40
2018-04-26T18:22:39.366Z,1.57
2018-04-26T18:25:06.453Z,1.53
2018-04-26T18:27:33.038Z,1.40
2018-04-26T18:30:00.665Z,1.70
2018-04-26T18:32:27.801Z,1.70
2018-04-26T18:34:55.738Z,1.00
2018-04-26T18:37:22.888Z,1.57
2018-04-26T18:39:49.345Z,1.57
2018-04-26T18:42:15.832Z,1.50
2018-04-26T18:44:43.672Z,1.27
2018-04-26T18:47:10.911Z,1.47
2018-04-26T18:49:37.759Z,1.60
2018-04-26T18:52:05.832Z,2.10
2018-04-26T18:54:32.266Z,3.60
2018-04-26T18:56:58.728Z,5.63
2018-04-26T18:59:25.060Z,3.57
2018-04-26T19:01:52.217Z,4.20
2018-04-26T19:04:19.404Z,2.70
2018-04-26T19:06:45.857Z,2.60
2018-04-26T19:09:12.320Z,3.37
2018-04-26T19:11:39.591Z,3.73
2018-04-26T19:14:06.742Z,2.50
2018-04-26T19:16:33.170Z,4.10
2018-04-26T19:19:00.300Z,4.30
2018-04-26T19:21:26.706Z,4.80
2018-04-26T19:23:53.117Z,4.87
2018-04-26T19:26:19.519Z,3.90
2018-04-26T19:28:45.915Z,3.90
2018-04-26T19:31:12.319Z,3.80
2018-04-26T19:33:39.622Z,3.73
2018-04-26T19:36:06.032Z,3.40
2018-04-26T19:38:32.475Z,3.00
2018-04-26T19:40:58.896Z,3.27
2018-04-26T19:43:26.782Z,3.00
2018-04-26T19:45:53.178Z,3.40
2018-04-26T19:48:19.659Z,2.70
2018-04-26T19:50:46.816Z,3.20
2018-04-26T19:53:13.253Z,2.33
2018-04-26T19:55:40.406Z,2.90
2018-04-26T19:58:07.539Z,2.30
2018-04-26T20:00:33.914Z,2.93
2018-04-26T20:03:00.301Z,3.40
2018-04-26T20:05:26.713Z,2.90
2018-04-26T20:07:53.111Z,3.37
2018-04-26T20:10:19.515Z,4.17
2018-04-26T20:12:46.687Z,4.17
2018-04-26T20:15:13.093Z,4.90
2018-04-26T20:17:40.267Z,6.03
2018-04-26T20:20:06.672Z,4.93
2018-04-26T20:22:33.815Z,4.70
2018-04-26T20:25:00.233Z,4.70
2018-04-26T20:27:26.646Z,4.30
2018-04-26T20:29:53.077Z,3.70
2018-04-26T20:32:19.485Z,3.10
2018-04-26T20:34:45.897Z,3.97
2018-04-26T20:37:13.090Z,4.20
2018-04-26T20:39:39.531Z,3.57
2018-04-26T20:42:05.959Z,3.60
2018-04-26T20:44:46.726Z,4.30
2018-04-26T20:47:13.157Z,4.23
2018-04-26T20:49:39.610Z,3.70
2018-04-26T20:52:06.059Z,4.27
2018-04-26T20:54:32.456Z,3.90
2018-04-26T20:56:58.936Z,3.80
2018-04-26T20:59:26.103Z,4.33
2018-04-26T21:01:53.273Z,4.77
2018-04-26T21:04:19.707Z,4.37
2018-04-26T21:06:46.118Z,5.23
2018-04-26T21:09:13.286Z,5.27
2018-04-26T21:11:39.694Z,4.00
2018-04-26T21:14:06.945Z,3.90
2018-04-26T21:16:33.300Z,4.40
2018-04-26T21:18:59.725Z,4.37
2018-04-26T21:21:26.175Z,4.07
2018-04-26T21:23:52.600Z,4.80
2018-04-26T21:26:19.004Z,5.70
2018-04-26T21:28:46.153Z,4.30
2018-04-26T21:31:13.302Z,4.20
2018-04-26T21:33:40.708Z,4.47
2018-04-26T21:36:07.127Z,4.07
2018-04-26T21:38:33.539Z,3.60
2018-04-26T21:40:59.971Z,3.80
2018-04-26T21:43:26.388Z,4.53
2018-04-26T21:45:53.543Z,4.13
2018-04-26T21:48:20.707Z,4.50
2018-04-26T21:50:53.177Z,4.03
2018-04-26T21:53:26.287Z,4.13
2018-04-26T21:55:58.871Z,3.90
2018-04-26T21:58:31.286Z,4.10
2018-04-26T22:01:03.828Z,4.50
2018-04-26T22:03:51.204Z,5.13
2018-04-26T22:06:18.384Z,4.80
2018-04-26T22:08:44.831Z,5.20
2018-04-26T22:11:11.241Z,4.63
2018-04-26T22:13:37.675Z,5.10
2018-04-26T22:16:04.113Z,5.30
2018-04-26T22:18:30.526Z,3.93
2018-04-26T22:20:57.704Z,4.83
2018-04-26T22:23:24.131Z,4.83
2018-04-26T22:25:50.535Z,4.90
2018-04-26T22:28:16.944Z,4.90
2018-04-26T22:30:43.345Z,6.00
2018-04-26T22:33:09.760Z,4.90
2018-04-26T22:35:36.207Z,4.50
2018-04-26T22:38:02.605Z,5.30
2018-04-26T22:40:29.755Z,4.50
2018-04-26T22:42:56.910Z,5.03
2018-04-26T22:45:24.057Z,4.90
2018-04-26T22:47:51.205Z,5.50
2018-04-26T22:50:18.350Z,6.00
2018-04-26T22:52:44.746Z,5.63
2018-04-26T22:55:11.299Z,5.10
2018-04-26T22:57:37.746Z,5.70
2018-04-26T23:00:04.937Z,5.93
2018-04-26T23:02:31.363Z,4.67
2018-04-26T23:04:57.774Z,4.53
2018-04-26T23:07:24.956Z,4.50
2018-04-26T23:09:51.374Z,5.20
2018-04-26T23:12:17.775Z,6.43
2018-04-26T23:14:44.182Z,6.80
2018-04-26T23:17:10.637Z,6.20
2018-04-26T23:19:37.036Z,7.00
2018-04-26T23:22:03.433Z,5.70
2018-04-26T23:24:29.848Z,7.53
2018-04-26T23:26:57.065Z,5.03
2018-04-26T23:29:23.470Z,6.03
2018-04-26T23:31:49.858Z,6.83
2018-04-26T23:34:17.051Z,6.50
2018-04-26T23:36:44.168Z,5.80
2018-04-26T23:39:11.304Z,5.47
2018-04-26T23:41:38.450Z,10.33
2018-04-26T23:44:04.891Z,8.13
2018-04-26T23:46:32.044Z,7.40
2018-04-26T23:48:59.186Z,6.77
2018-04-26T23:51:26.347Z,6.90
2018-04-26T23:53:53.505Z,5.93
2018-04-26T23:56:20.644Z,6.80
2018-04-26T23:58:47.784Z,6.93
